createdAt,value
2022-09-17T08:09:47.596Z,96427.88
2022-09-17T08:10:48.937Z,96444.81
2022-09-17T08:11:57.777Z,96436.28
2022-09-17T08:33:33.933Z,96411.19
2022-09-17T08:34:36.672Z,96441.59
2022-09-17T08:35:37.989Z,96422.66
2022-09-17T08:36:39.847Z,96431.13
2022-09-17T08:37:41.378Z,96444.59
2022-09-17T08:44:08.476Z,96443.31
2022-09-17T08:45:14.493Z,96433.34
2022-09-17T09:01:16.041Z,96454.75
2022-09-17T09:02:27.677Z,96459.13
2022-09-17T09:22:49.973Z,96468.25
2022-09-17T09:24:07.869Z,96469.16
2022-09-17T09:30:58.708Z,96465.50
2022-09-17T09:32:16.281Z,96458.50
2022-09-17T09:33:27.714Z,96464.94
2022-09-17T09:34:33.596Z,96461.31
2022-09-17T09:35:39.285Z,96461.75
2022-09-17T09:36:41.114Z,96462.56
2022-09-17T09:37:50.257Z,96450.34
2022-09-17T09:39:15.751Z,96451.69
2022-09-17T09:40:36.427Z,96462.72
2022-09-17T09:41:54.291Z,96464.63
2022-09-17T09:48:43.569Z,96468.34
2022-09-17T10:08:14.877Z,96451.25
2022-09-17T10:09:21.041Z,96456.47
2022-09-17T10:10:22.406Z,96445.88
2022-09-17T10:11:28.959Z,96460.47
2022-09-17T10:12:30.304Z,96453.06
2022-09-17T10:13:35.722Z,96430.13
2022-09-17T10:14:38.612Z,96436.47
2022-09-17T10:15:39.987Z,96456.94
2022-09-17T10:16:41.448Z,96456.53
2022-09-17T10:17:42.792Z,96448.38
2022-09-17T10:18:44.754Z,96461.53
2022-09-17T10:19:59.356Z,96459.16
2022-09-17T10:21:01.445Z,96449.94
2022-09-17T10:22:20.638Z,96442.56
2022-09-17T10:23:24.017Z,96456.28
2022-09-17T10:24:32.047Z,96459.91
2022-09-17T10:25:34.991Z,96460.91
2022-09-17T10:26:37.504Z,96457.44
2022-09-17T10:27:45.272Z,96450.31
2022-09-17T10:28:51.743Z,96444.59
2022-09-17T10:30:08.445Z,96453.13
2022-09-17T10:31:12.792Z,96452.34
2022-09-17T10:32:20.895Z,96453.38
2022-09-17T10:33:27.611Z,96457.97
2022-09-17T10:34:32.923Z,96468.19
2022-09-17T10:35:34.750Z,96449.56
2022-09-17T10:36:44.651Z,96457.88
2022-09-17T10:37:51.528Z,96444.28
2022-09-17T10:38:52.930Z,96451.28
2022-09-17T10:39:56.583Z,96451.31
2022-09-17T10:41:14.642Z,96440.97
2022-09-17T10:42:18.017Z,96455.97
2022-09-17T10:43:23.239Z,96457.44
2022-09-17T10:44:27.296Z,96448.88
2022-09-17T10:45:31.141Z,96456.91
2022-09-17T10:46:34.200Z,96454.72
2022-09-17T10:47:43.790Z,96442.22
2022-09-17T10:48:56.985Z,96451.91
2022-09-17T10:50:07.448Z,96454.13
2022-09-17T10:51:10.622Z,96453.06
2022-09-17T10:52:18.195Z,96453.97
2022-09-17T10:53:23.250Z,96449.63
2022-09-17T10:54:35.461Z,96457.69
2022-09-17T10:55:55.215Z,96449.69
2022-09-17T10:56:59.603Z,96423.13
2022-09-17T10:58:07.258Z,96448.00
2022-09-17T10:59:22.250Z,96440.25
2022-09-17T11:00:24.511Z,96422.78
2022-09-17T11:01:31.945Z,96440.84
2022-09-17T11:02:51.775Z,96448.59
2022-09-17T11:04:04.908Z,96435.38
2022-09-17T11:05:30.296Z,96438.53
2022-09-17T11:07:08.988Z,96434.94
2022-09-17T11:08:16.264Z,96439.22
2022-09-17T11:09:52.341Z,96429.31
2022-09-17T11:11:23.953Z,96424.41
2022-09-17T11:12:42.722Z,96408.19
2022-09-17T11:14:02.760Z,96425.78
2022-09-17T11:15:19.365Z,96426.47
2022-09-17T11:16:40.039Z,96428.72
2022-09-17T11:18:09.700Z,96428.34
2022-09-17T11:19:32.829Z,96415.53
2022-09-17T11:20:55.894Z,96405.09
2022-09-17T11:22:11.784Z,96409.66
2022-09-17T11:23:49.876Z,96403.84
2022-09-17T11:25:07.884Z,96403.38
2022-09-17T11:26:46.528Z,96408.34
2022-09-17T11:27:59.798Z,96390.75
2022-09-17T11:29:15.968Z,96406.38
2022-09-17T11:30:20.638Z,96415.06
2022-09-17T11:31:36.850Z,96420.59
2022-09-17T11:32:53.611Z,96404.56
2022-09-17T11:34:13.094Z,96401.47
2022-09-17T11:35:15.637Z,96409.31
2022-09-17T11:36:26.922Z,96379.38
2022-09-17T11:37:43.536Z,96404.81
2022-09-17T11:38:49.125Z,96389.41
2022-09-17T11:39:58.390Z,96408.25
2022-09-17T11:41:06.486Z,96406.53
2022-09-17T11:42:15.837Z,96394.03
2022-09-17T11:43:21.560Z,96398.19
2022-09-17T11:44:29.923Z,96395.31
2022-09-17T11:45:39.497Z,96396.84
2022-09-17T11:46:46.550Z,96376.25
2022-09-17T11:48:04.520Z,96408.19
2022-09-17T11:49:12.697Z,96386.53
2022-09-17T11:50:30.458Z,96395.22
2022-09-17T11:51:47.927Z,96399.41
2022-09-17T11:53:26.754Z,96388.38
2022-09-17T11:54:42.716Z,96395.25
2022-09-17T11:56:05.413Z,96397.34
2022-09-17T11:57:16.530Z,96395.09
2022-09-17T11:58:32.425Z,96402.72
2022-09-17T11:59:44.754Z,96386.13
2022-09-17T12:00:55.328Z,96399.53
2022-09-17T12:02:00.587Z,96384.72
2022-09-17T12:03:12.237Z,96404.41
2022-09-17T12:04:30.200Z,96407.53
2022-09-17T12:05:37.475Z,96403.25
2022-09-17T12:06:50.414Z,96402.59
2022-09-17T12:08:00.792Z,96401.13
2022-09-17T12:09:12.290Z,96401.84
2022-09-17T12:10:34.127Z,96404.94
2022-09-17T12:11:54.824Z,96397.56
2022-09-17T12:13:14.033Z,96405.16
2022-09-17T12:14:22.882Z,96397.81
2022-09-17T12:19:49.032Z,96419.03
2022-09-17T12:20:55.030Z,96418.44
2022-09-17T12:28:00.393Z,96430.53
2022-09-17T12:36:17.149Z,96422.47
2022-09-17T13:03:03.284Z,96444.47
2022-09-17T13:08:16.443Z,96453.00
2022-09-17T13:09:26.789Z,96451.09
2022-09-17T13:11:13.988Z,96451.47
2022-09-17T13:12:27.553Z,96446.53
2022-09-17T13:13:49.409Z,96431.34
2022-09-17T13:15:26.672Z,96442.94
2022-09-17T13:16:42.995Z,96441.13
2022-09-17T13:18:27.445Z,96425.63
2022-09-17T13:19:50.187Z,96439.75
2022-09-17T13:21:03.796Z,96439.75
2022-09-17T13:22:19.376Z,96433.16
2022-09-17T13:23:38.012Z,96415.13
2022-09-17T13:24:43.871Z,96419.84
2022-09-17T13:25:54.200Z,96417.50
2022-09-17T13:26:58.136Z,96399.16
2022-09-17T13:28:11.206Z,96428.63
2022-09-17T13:29:33.096Z,96419.19
2022-09-17T13:31:00.145Z,96422.50
2022-09-17T13:32:01.873Z,96418.97
2022-09-17T13:33:03.997Z,96407.22
2022-09-17T13:34:17.270Z,96420.88
2022-09-17T13:35:18.680Z,96412.69
2022-09-17T13:36:41.189Z,96401.13
2022-09-17T13:37:44.226Z,96404.78
2022-09-17T13:38:45.596Z,96405.13
2022-09-17T13:39:50.787Z,96410.97
2022-09-17T13:40:53.281Z,96417.28
2022-09-17T13:42:06.440Z,96390.63
2022-09-17T13:43:13.827Z,96408.50
2022-09-17T13:44:23.408Z,96422.09
2022-09-17T13:45:26.672Z,96413.81
2022-09-17T13:46:29.088Z,96415.50
2022-09-17T13:47:37.019Z,96412.59
2022-09-17T13:48:49.198Z,96402.63
2022-09-17T13:49:55.075Z,96400.94
2022-09-17T13:50:57.072Z,96409.81
2022-09-17T13:51:58.468Z,96405.91
2022-09-17T13:53:07.340Z,96406.19
2022-09-17T13:54:10.647Z,96400.19
2022-09-17T13:55:42.664Z,96402.47
2022-09-17T13:57:07.055Z,96398.78
2022-09-17T13:58:12.608Z,96395.94
2022-09-17T13:59:21.454Z,96398.22
2022-09-17T14:00:57.132Z,96403.91
2022-09-17T14:02:18.777Z,96404.94
2022-09-17T14:03:37.036Z,96410.63
2022-09-17T14:04:41.539Z,96404.97
2022-09-17T14:05:42.992Z,96383.13
2022-09-17T14:06:51.409Z,96399.22
2022-09-17T14:08:14.006Z,96402.06
2022-09-17T14:09:36.064Z,96401.31
2022-09-17T14:10:42.632Z,96400.81
2022-09-17T14:11:43.978Z,96395.00
2022-09-17T14:12:48.700Z,96392.75
2022-09-17T14:13:53.781Z,96378.16
2022-09-17T14:14:55.148Z,96391.34
2022-09-17T14:16:02.098Z,96385.16
2022-09-17T14:17:04.483Z,96399.78
2022-09-17T14:18:27.697Z,96396.66
2022-09-17T14:19:51.076Z,96399.97
2022-09-17T14:21:25.120Z,96400.63
2022-09-17T14:22:27.069Z,96392.56
2022-09-17T14:23:28.437Z,96393.53
2022-09-17T14:24:46.469Z,96391.47
2022-09-17T14:25:54.092Z,96395.09
2022-09-17T14:27:02.153Z,96397.19
2022-09-17T14:28:13.843Z,96383.38
2022-09-17T14:29:23.390Z,96395.72
2022-09-17T14:30:31.360Z,96399.72
2022-09-17T14:31:36.754Z,96404.56
2022-09-17T14:32:51.701Z,96397.44
2022-09-17T14:33:53.483Z,96397.63
2022-09-17T14:34:54.854Z,96392.59
2022-09-17T14:36:10.274Z,96387.03
2022-09-17T14:37:16.774Z,96385.56
2022-09-17T14:38:25.426Z,96396.22
2022-09-17T14:39:38.293Z,96376.19
2022-09-17T14:40:46.250Z,96382.34
2022-09-17T14:41:48.757Z,96376.38
2022-09-17T14:42:55.080Z,96364.66
2022-09-17T14:44:19.557Z,96380.66
2022-09-17T14:45:26.146Z,96374.13
2022-09-17T14:46:37.726Z,96385.63
2022-09-17T14:47:39.226Z,96375.03
2022-09-17T14:48:41.336Z,96391.41
2022-09-17T14:49:43.153Z,96377.66
2022-09-17T14:50:44.709Z,96376.63
2022-09-17T14:55:27.456Z,96392.09
2022-09-17T14:56:29.261Z,96393.59
2022-09-17T14:57:31.306Z,96402.81
2022-09-17T14:58:38.277Z,96390.94
2022-09-17T14:59:52.841Z,96388.91
2022-09-17T15:00:54.320Z,96392.59
2022-09-17T15:01:56.299Z,96396.25
2022-09-17T15:03:00.376Z,96390.69
2022-09-17T15:04:13.777Z,96384.22
2022-09-17T15:05:39.315Z,96396.88
2022-09-17T15:06:42.748Z,96395.56
2022-09-17T15:07:45.324Z,96394.84
2022-09-17T15:08:46.944Z,96391.19
2022-09-17T15:14:34.596Z,96383.53
2022-09-17T15:15:36.688Z,96390.66
2022-09-17T15:16:38.757Z,96390.69
2022-09-17T15:17:42.615Z,96377.13
2022-09-17T15:18:51.819Z,96391.94
2022-09-17T15:19:57.449Z,96390.28
2022-09-17T15:21:01.509Z,96382.25
2022-09-17T15:22:29.064Z,96381.09
2022-09-17T15:23:33.813Z,96392.84
2022-09-17T15:24:56.613Z,96381.31
2022-09-17T15:25:58.895Z,96385.25
2022-09-17T15:27:09.603Z,96381.31
2022-09-17T15:28:36.516Z,96376.00
2022-09-17T15:29:42.617Z,96372.56
2022-09-17T15:30:45.632Z,96376.38
2022-09-17T15:31:47.176Z,96366.38
2022-09-17T15:32:55.918Z,96379.63
2022-09-17T15:34:01.026Z,96384.66
2022-09-17T15:35:11.564Z,96387.38
2022-09-17T15:36:18.548Z,96386.94
2022-09-17T15:37:25.105Z,96394.56
2022-09-17T15:38:28.483Z,96385.81
2022-09-17T15:39:31.766Z,96386.94
2022-09-17T15:40:43.480Z,96399.44
2022-09-17T15:41:55.757Z,96393.47
2022-09-17T15:43:06.281Z,96385.22
2022-09-17T15:44:29.194Z,96392.91
2022-09-17T15:45:38.782Z,96374.41
2022-09-17T15:46:40.464Z,96391.34
2022-09-17T15:51:23.501Z,96390.31
2022-09-17T15:52:31.245Z,96394.63
2022-09-17T15:53:35.078Z,96388.63
2022-09-17T15:54:37.546Z,96388.44
2022-09-17T15:55:42.678Z,96372.41
2022-09-17T15:56:44.183Z,96382.06
2022-09-17T15:57:45.569Z,96384.59
2022-09-17T15:58:47.005Z,96385.59
2022-09-17T15:59:49.359Z,96388.81
2022-09-17T16:01:15.602Z,96387.91
2022-09-17T16:02:31.520Z,96380.44
2022-09-17T16:03:58.454Z,96385.47
2022-09-17T16:05:25.926Z,96384.00
2022-09-17T16:06:27.288Z,96380.09
2022-09-17T16:07:30.379Z,96388.28
2022-09-17T16:08:35.109Z,96360.19
2022-09-17T16:09:48.026Z,96392.59
2022-09-17T16:10:49.585Z,96369.13
2022-09-17T16:11:50.937Z,96375.22
2022-09-17T16:17:28.025Z,96393.50
2022-09-17T16:18:29.597Z,96391.75
2022-09-17T16:23:37.492Z,96395.50
